sensor_id;sensor_type;location;lat;lon;timestamp;P1;durP1;ratioP1;P2;durP2;ratioP2
52730;SDS011;38624;53.242;6.974;2023-09-08T00:00:00;11.87;;;10.20;;
52730;SDS011;38624;53.242;6.974;2023-09-08T00:02:26;11.68;;;10.27;;
52730;SDS011;38624;53.242;6.974;2023-09-08T00:04:53;13.65;;;10.27;;
52730;SDS011;38624;53.242;6.974;2023-09-08T00:07:19;13.30;;;10.30;;
52730;SDS011;38624;53.242;6.974;2023-09-08T00:09:45;13.50;;;11.13;;
52730;SDS011;38624;53.242;6.974;2023-09-08T00:12:10;12.30;;;10.17;;
52730;SDS011;38624;53.242;6.974;2023-09-08T00:14:36;13.00;;;10.23;;
52730;SDS011;38624;53.242;6.974;2023-09-08T00:17:02;11.27;;;10.10;;
52730;SDS011;38624;53.242;6.974;2023-09-08T00:19:28;13.40;;;10.67;;
52730;SDS011;38624;53.242;6.974;2023-09-08T00:21:53;12.83;;;10.37;;
52730;SDS011;38624;53.242;6.974;2023-09-08T00:24:19;11.87;;;9.50;;
52730;SDS011;38624;53.242;6.974;2023-09-08T00:26:45;14.30;;;9.87;;
52730;SDS011;38624;53.242;6.974;2023-09-08T00:29:10;12.40;;;9.80;;
52730;SDS011;38624;53.242;6.974;2023-09-08T00:31:36;14.10;;;10.43;;
52730;SDS011;38624;53.242;6.974;2023-09-08T00:34:02;11.97;;;9.83;;
52730;SDS011;38624;53.242;6.974;2023-09-08T00:36:27;10.80;;;9.60;;
52730;SDS011;38624;53.242;6.974;2023-09-08T00:38:53;11.30;;;10.10;;
52730;SDS011;38624;53.242;6.974;2023-09-08T00:41:19;13.07;;;9.83;;
52730;SDS011;38624;53.242;6.974;2023-09-08T00:43:45;11.50;;;9.60;;
52730;SDS011;38624;53.242;6.974;2023-09-08T00:46:10;13.07;;;10.40;;
52730;SDS011;38624;53.242;6.974;2023-09-08T00:51:03;12.52;;;9.35;;
52730;SDS011;38624;53.242;6.974;2023-09-08T00:53:31;14.50;;;10.18;;
52730;SDS011;38624;53.242;6.974;2023-09-08T00:55:56;12.98;;;10.57;;
52730;SDS011;38624;53.242;6.974;2023-09-08T00:58:24;11.30;;;10.07;;
52730;SDS011;38624;53.242;6.974;2023-09-08T01:00:50;14.38;;;10.52;;
52730;SDS011;38624;53.242;6.974;2023-09-08T01:03:16;12.17;;;10.60;;
52730;SDS011;38624;53.242;6.974;2023-09-08T01:05:41;12.10;;;10.77;;
52730;SDS011;38624;53.242;6.974;2023-09-08T01:08:08;13.05;;;10.77;;
52730;SDS011;38624;53.242;6.974;2023-09-08T01:10:34;12.93;;;11.57;;
52730;SDS011;38624;53.242;6.974;2023-09-08T01:13:02;13.57;;;11.45;;
52730;SDS011;38624;53.242;6.974;2023-09-08T01:15:28;14.90;;;11.85;;
52730;SDS011;38624;53.242;6.974;2023-09-08T01:17:54;13.30;;;11.20;;
52730;SDS011;38624;53.242;6.974;2023-09-08T01:20:23;14.60;;;10.93;;
52730;SDS011;38624;53.242;6.974;2023-09-08T01:25:26;13.13;;;11.55;;
52730;SDS011;38624;53.242;6.974;2023-09-08T01:27:55;14.43;;;12.43;;
52730;SDS011;38624;53.242;6.974;2023-09-08T01:30:24;18.08;;;12.30;;
52730;SDS011;38624;53.242;6.974;2023-09-08T01:32:52;15.23;;;12.27;;
52730;SDS011;38624;53.242;6.974;2023-09-08T01:35:19;13.30;;;11.82;;
52730;SDS011;38624;53.242;6.974;2023-09-08T01:37:45;18.60;;;12.40;;
52730;SDS011;38624;53.242;6.974;2023-09-08T01:40:12;16.10;;;11.93;;
52730;SDS011;38624;53.242;6.974;2023-09-08T01:42:38;16.08;;;11.82;;
52730;SDS011;38624;53.242;6.974;2023-09-08T01:45:04;13.30;;;11.77;;
52730;SDS011;38624;53.242;6.974;2023-09-08T01:47:31;12.63;;;11.10;;
52730;SDS011;38624;53.242;6.974;2023-09-08T01:49:57;15.32;;;11.75;;
52730;SDS011;38624;53.242;6.974;2023-09-08T01:52:23;15.67;;;11.60;;
52730;SDS011;38624;53.242;6.974;2023-09-08T01:54:49;14.55;;;12.35;;
52730;SDS011;38624;53.242;6.974;2023-09-08T01:57:15;14.50;;;11.87;;
52730;SDS011;38624;53.242;6.974;2023-09-08T01:59:41;14.07;;;11.73;;
52730;SDS011;38624;53.242;6.974;2023-09-08T02:02:06;15.07;;;11.83;;
52730;SDS011;38624;53.242;6.974;2023-09-08T02:04:32;13.20;;;11.80;;
52730;SDS011;38624;53.242;6.974;2023-09-08T02:06:58;12.87;;;10.97;;
52730;SDS011;38624;53.242;6.974;2023-09-08T02:09:31;13.95;;;11.55;;
52730;SDS011;38624;53.242;6.974;2023-09-08T02:12:01;12.88;;;10.90;;
52730;SDS011;38624;53.242;6.974;2023-09-08T02:14:28;12.57;;;11.27;;
52730;SDS011;38624;53.242;6.974;2023-09-08T02:16:54;13.27;;;11.63;;
52730;SDS011;38624;53.242;6.974;2023-09-08T02:19:20;16.08;;;12.07;;
52730;SDS011;38624;53.242;6.974;2023-09-08T02:21:46;12.97;;;11.53;;
52730;SDS011;38624;53.242;6.974;2023-09-08T02:24:11;14.90;;;11.67;;
52730;SDS011;38624;53.242;6.974;2023-09-08T02:26:41;16.77;;;12.27;;
52730;SDS011;38624;53.242;6.974;2023-09-08T02:29:06;13.93;;;12.27;;
52730;SDS011;38624;53.242;6.974;2023-09-08T02:31:32;16.50;;;11.93;;
52730;SDS011;38624;53.242;6.974;2023-09-08T02:33:59;13.90;;;12.02;;
52730;SDS011;38624;53.242;6.974;2023-09-08T02:36:25;13.10;;;11.55;;
52730;SDS011;38624;53.242;6.974;2023-09-08T02:38:54;16.40;;;12.25;;
52730;SDS011;38624;53.242;6.974;2023-09-08T02:41:21;14.73;;;12.15;;
52730;SDS011;38624;53.242;6.974;2023-09-08T02:43:47;15.27;;;12.32;;
52730;SDS011;38624;53.242;6.974;2023-09-08T02:46:14;15.63;;;12.82;;
52730;SDS011;38624;53.242;6.974;2023-09-08T02:48:39;15.03;;;12.27;;
52730;SDS011;38624;53.242;6.974;2023-09-08T02:51:05;18.93;;;12.53;;
52730;SDS011;38624;53.242;6.974;2023-09-08T02:53:31;14.73;;;12.20;;
52730;SDS011;38624;53.242;6.974;2023-09-08T02:55:57;14.27;;;12.70;;
52730;SDS011;38624;53.242;6.974;2023-09-08T02:58:24;14.20;;;12.40;;
52730;SDS011;38624;53.242;6.974;2023-09-08T03:00:50;14.93;;;12.65;;
52730;SDS011;38624;53.242;6.974;2023-09-08T03:03:19;15.80;;;12.68;;
52730;SDS011;38624;53.242;6.974;2023-09-08T03:05:45;14.43;;;11.85;;
52730;SDS011;38624;53.242;6.974;2023-09-08T03:08:10;18.07;;;12.33;;
52730;SDS011;38624;53.242;6.974;2023-09-08T03:10:36;16.70;;;12.50;;
52730;SDS011;38624;53.242;6.974;2023-09-08T03:13:02;15.50;;;12.87;;
52730;SDS011;38624;53.242;6.974;2023-09-08T03:15:28;16.58;;;12.43;;
52730;SDS011;38624;53.242;6.974;2023-09-08T03:17:54;15.63;;;12.77;;
52730;SDS011;38624;53.242;6.974;2023-09-08T03:20:21;17.98;;;13.07;;
52730;SDS011;38624;53.242;6.974;2023-09-08T03:22:47;17.17;;;12.50;;
52730;SDS011;38624;53.242;6.974;2023-09-08T03:25:15;15.80;;;12.50;;
52730;SDS011;38624;53.242;6.974;2023-09-08T03:27:41;15.43;;;12.55;;
52730;SDS011;38624;53.242;6.974;2023-09-08T03:30:07;17.27;;;12.93;;
52730;SDS011;38624;53.242;6.974;2023-09-08T03:32:33;16.25;;;12.93;;
52730;SDS011;38624;53.242;6.974;2023-09-08T03:34:59;15.20;;;13.55;;
52730;SDS011;38624;53.242;6.974;2023-09-08T03:37:25;16.87;;;12.87;;
52730;SDS011;38624;53.242;6.974;2023-09-08T03:39:51;16.08;;;12.95;;
52730;SDS011;38624;53.242;6.974;2023-09-08T03:42:18;14.88;;;12.68;;
52730;SDS011;38624;53.242;6.974;2023-09-08T03:44:43;16.90;;;13.60;;
52730;SDS011;38624;53.242;6.974;2023-09-08T03:47:09;16.07;;;13.30;;
52730;SDS011;38624;53.242;6.974;2023-09-08T03:49:35;16.40;;;13.63;;
52730;SDS011;38624;53.242;6.974;2023-09-08T03:52:00;15.23;;;13.03;;
52730;SDS011;38624;53.242;6.974;2023-09-08T03:54:26;16.97;;;13.97;;
52730;SDS011;38624;53.242;6.974;2023-09-08T03:56:52;17.20;;;13.90;;
52730;SDS011;38624;53.242;6.974;2023-09-08T03:59:18;15.17;;;13.27;;
52730;SDS011;38624;53.242;6.974;2023-09-08T04:01:43;14.97;;;13.27;;
52730;SDS011;38624;53.242;6.974;2023-09-08T04:04:09;15.93;;;13.83;;
52730;SDS011;38624;53.242;6.974;2023-09-08T04:06:35;17.73;;;13.87;;
52730;SDS011;38624;53.242;6.974;2023-09-08T04:09:00;15.80;;;13.23;;
52730;SDS011;38624;53.242;6.974;2023-09-08T04:11:26;17.83;;;14.03;;
52730;SDS011;38624;53.242;6.974;2023-09-08T04:13:52;16.73;;;13.77;;
52730;SDS011;38624;53.242;6.974;2023-09-08T04:16:18;16.97;;;13.93;;
52730;SDS011;38624;53.242;6.974;2023-09-08T04:18:43;18.05;;;13.98;;
52730;SDS011;38624;53.242;6.974;2023-09-08T04:21:09;16.10;;;13.90;;
52730;SDS011;38624;53.242;6.974;2023-09-08T04:23:35;18.90;;;13.97;;
52730;SDS011;38624;53.242;6.974;2023-09-08T04:26:01;17.53;;;14.10;;
52730;SDS011;38624;53.242;6.974;2023-09-08T04:28:27;17.63;;;15.07;;
52730;SDS011;38624;53.242;6.974;2023-09-08T04:30:53;18.20;;;14.77;;
52730;SDS011;38624;53.242;6.974;2023-09-08T04:33:18;15.97;;;14.10;;
52730;SDS011;38624;53.242;6.974;2023-09-08T04:35:44;16.87;;;14.13;;
52730;SDS011;38624;53.242;6.974;2023-09-08T04:38:10;15.87;;;13.63;;
52730;SDS011;38624;53.242;6.974;2023-09-08T04:40:36;18.13;;;14.87;;
52730;SDS011;38624;53.242;6.974;2023-09-08T04:43:05;17.77;;;14.77;;
52730;SDS011;38624;53.242;6.974;2023-09-08T04:45:30;17.67;;;14.63;;
52730;SDS011;38624;53.242;6.974;2023-09-08T04:47:56;16.97;;;14.50;;
52730;SDS011;38624;53.242;6.974;2023-09-08T04:50:22;17.23;;;15.10;;
52730;SDS011;38624;53.242;6.974;2023-09-08T04:52:47;17.73;;;15.00;;
52730;SDS011;38624;53.242;6.974;2023-09-08T04:55:13;20.70;;;13.47;;
52730;SDS011;38624;53.242;6.974;2023-09-08T04:57:39;15.93;;;13.87;;
52730;SDS011;38624;53.242;6.974;2023-09-08T05:00:05;17.20;;;14.53;;
52730;SDS011;38624;53.242;6.974;2023-09-08T05:02:31;16.10;;;14.00;;
52730;SDS011;38624;53.242;6.974;2023-09-08T05:04:57;18.63;;;15.02;;
52730;SDS011;38624;53.242;6.974;2023-09-08T05:07:25;17.35;;;14.82;;
52730;SDS011;38624;53.242;6.974;2023-09-08T05:09:50;19.87;;;15.17;;
52730;SDS011;38624;53.242;6.974;2023-09-08T05:12:16;17.87;;;14.77;;
52730;SDS011;38624;53.242;6.974;2023-09-08T05:14:42;18.30;;;14.50;;
52730;SDS011;38624;53.242;6.974;2023-09-08T05:17:07;17.57;;;14.40;;
52730;SDS011;38624;53.242;6.974;2023-09-08T05:19:33;17.50;;;14.70;;
52730;SDS011;38624;53.242;6.974;2023-09-08T05:21:59;17.47;;;14.77;;
52730;SDS011;38624;53.242;6.974;2023-09-08T05:24:25;17.17;;;15.37;;
52730;SDS011;38624;53.242;6.974;2023-09-08T05:26:52;21.15;;;14.50;;
52730;SDS011;38624;53.242;6.974;2023-09-08T05:29:18;18.35;;;14.77;;
52730;SDS011;38624;53.242;6.974;2023-09-08T05:31:43;17.23;;;14.20;;
52730;SDS011;38624;53.242;6.974;2023-09-08T05:34:09;21.53;;;14.47;;
52730;SDS011;38624;53.242;6.974;2023-09-08T05:36:35;17.67;;;14.37;;
52730;SDS011;38624;53.242;6.974;2023-09-08T05:39:03;17.55;;;14.75;;
52730;SDS011;38624;53.242;6.974;2023-09-08T05:41:29;18.08;;;14.77;;
52730;SDS011;38624;53.242;6.974;2023-09-08T05:43:55;16.90;;;15.13;;
52730;SDS011;38624;53.242;6.974;2023-09-08T05:46:21;18.13;;;14.00;;
52730;SDS011;38624;53.242;6.974;2023-09-08T05:48:46;18.73;;;14.27;;
52730;SDS011;38624;53.242;6.974;2023-09-08T05:51:12;17.63;;;13.90;;
52730;SDS011;38624;53.242;6.974;2023-09-08T05:53:39;17.27;;;15.18;;
52730;SDS011;38624;53.242;6.974;2023-09-08T05:56:05;16.67;;;14.10;;
52730;SDS011;38624;53.242;6.974;2023-09-08T05:58:31;19.02;;;14.10;;
52730;SDS011;38624;53.242;6.974;2023-09-08T06:00:59;19.50;;;14.40;;
52730;SDS011;38624;53.242;6.974;2023-09-08T06:03:26;18.48;;;14.82;;
52730;SDS011;38624;53.242;6.974;2023-09-08T06:05:51;17.97;;;14.80;;
52730;SDS011;38624;53.242;6.974;2023-09-08T06:08:17;18.60;;;14.73;;
52730;SDS011;38624;53.242;6.974;2023-09-08T06:10:43;18.80;;;14.37;;
52730;SDS011;38624;53.242;6.974;2023-09-08T06:13:08;16.37;;;13.27;;
52730;SDS011;38624;53.242;6.974;2023-09-08T06:15:35;16.77;;;14.57;;
52730;SDS011;38624;53.242;6.974;2023-09-08T06:18:01;17.73;;;15.13;;
52730;SDS011;38624;53.242;6.974;2023-09-08T06:20:26;16.90;;;14.93;;
52730;SDS011;38624;53.242;6.974;2023-09-08T06:22:52;18.77;;;14.17;;
52730;SDS011;38624;53.242;6.974;2023-09-08T06:25:18;19.30;;;15.13;;
52730;SDS011;38624;53.242;6.974;2023-09-08T06:27:43;18.73;;;15.70;;
52730;SDS011;38624;53.242;6.974;2023-09-08T06:30:09;19.27;;;15.67;;
52730;SDS011;38624;53.242;6.974;2023-09-08T06:32:36;17.52;;;14.35;;
52730;SDS011;38624;53.242;6.974;2023-09-08T06:35:01;21.23;;;16.27;;
52730;SDS011;38624;53.242;6.974;2023-09-08T06:37:27;18.93;;;14.07;;
52730;SDS011;38624;53.242;6.974;2023-09-08T06:39:54;18.15;;;15.02;;
52730;SDS011;38624;53.242;6.974;2023-09-08T06:42:20;19.10;;;15.73;;
52730;SDS011;38624;53.242;6.974;2023-09-08T06:44:45;18.63;;;15.80;;
52730;SDS011;38624;53.242;6.974;2023-09-08T06:47:11;18.97;;;15.40;;
52730;SDS011;38624;53.242;6.974;2023-09-08T06:49:37;21.23;;;16.93;;
52730;SDS011;38624;53.242;6.974;2023-09-08T06:52:03;20.87;;;16.00;;
52730;SDS011;38624;53.242;6.974;2023-09-08T06:54:29;19.73;;;14.18;;
52730;SDS011;38624;53.242;6.974;2023-09-08T06:56:54;17.87;;;14.70;;
52730;SDS011;38624;53.242;6.974;2023-09-08T06:59:20;28.37;;;15.67;;
52730;SDS011;38624;53.242;6.974;2023-09-08T07:01:45;21.07;;;14.60;;
52730;SDS011;38624;53.242;6.974;2023-09-08T07:04:11;20.57;;;14.43;;
52730;SDS011;38624;53.242;6.974;2023-09-08T07:06:37;17.77;;;15.30;;
52730;SDS011;38624;53.242;6.974;2023-09-08T07:09:06;22.15;;;14.57;;
52730;SDS011;38624;53.242;6.974;2023-09-08T07:13:59;17.65;;;14.63;;
52730;SDS011;38624;53.242;6.974;2023-09-08T07:16:24;17.60;;;14.07;;
52730;SDS011;38624;53.242;6.974;2023-09-08T07:18:50;20.77;;;12.67;;
52730;SDS011;38624;53.242;6.974;2023-09-08T07:21:16;18.07;;;12.93;;
52730;SDS011;38624;53.242;6.974;2023-09-08T07:23:41;17.17;;;12.10;;
52730;SDS011;38624;53.242;6.974;2023-09-08T07:26:07;16.40;;;12.67;;
52730;SDS011;38624;53.242;6.974;2023-09-08T07:28:33;14.60;;;12.23;;
52730;SDS011;38624;53.242;6.974;2023-09-08T07:31:03;14.48;;;12.27;;
52730;SDS011;38624;53.242;6.974;2023-09-08T07:33:29;12.80;;;11.13;;
52730;SDS011;38624;53.242;6.974;2023-09-08T07:35:55;19.33;;;11.33;;
52730;SDS011;38624;53.242;6.974;2023-09-08T07:38:20;13.67;;;11.47;;
52730;SDS011;38624;53.242;6.974;2023-09-08T07:40:46;16.80;;;10.43;;
52730;SDS011;38624;53.242;6.974;2023-09-08T07:43:12;14.37;;;11.83;;
52730;SDS011;38624;53.242;6.974;2023-09-08T07:45:37;14.83;;;12.07;;
52730;SDS011;38624;53.242;6.974;2023-09-08T07:48:05;15.95;;;12.10;;
52730;SDS011;38624;53.242;6.974;2023-09-08T07:50:31;13.82;;;10.52;;
52730;SDS011;38624;53.242;6.974;2023-09-08T07:52:57;13.13;;;11.73;;
52730;SDS011;38624;53.242;6.974;2023-09-08T07:55:23;15.85;;;10.30;;
52730;SDS011;38624;53.242;6.974;2023-09-08T07:57:52;13.43;;;9.95;;
52730;SDS011;38624;53.242;6.974;2023-09-08T08:00:18;13.60;;;11.35;;
52730;SDS011;38624;53.242;6.974;2023-09-08T08:02:49;12.63;;;11.07;;
52730;SDS011;38624;53.242;6.974;2023-09-08T08:05:15;14.25;;;9.98;;
52730;SDS011;38624;53.242;6.974;2023-09-08T08:07:42;14.70;;;10.50;;
52730;SDS011;38624;53.242;6.974;2023-09-08T08:10:09;13.75;;;10.65;;
52730;SDS011;38624;53.242;6.974;2023-09-08T08:12:35;11.70;;;9.73;;
52730;SDS011;38624;53.242;6.974;2023-09-08T08:15:02;13.55;;;9.30;;
52730;SDS011;38624;53.242;6.974;2023-09-08T08:17:29;18.33;;;10.73;;
52730;SDS011;38624;53.242;6.974;2023-09-08T08:19:56;12.98;;;9.88;;
52730;SDS011;38624;53.242;6.974;2023-09-08T08:22:24;11.60;;;7.72;;
52730;SDS011;38624;53.242;6.974;2023-09-08T08:24:50;11.05;;;9.18;;
52730;SDS011;38624;53.242;6.974;2023-09-08T08:27:15;9.20;;;8.03;;
52730;SDS011;38624;53.242;6.974;2023-09-08T08:29:41;14.00;;;9.60;;
52730;SDS011;38624;53.242;6.974;2023-09-08T08:32:07;17.03;;;8.07;;
52730;SDS011;38624;53.242;6.974;2023-09-08T08:34:32;12.67;;;9.00;;
52730;SDS011;38624;53.242;6.974;2023-09-08T08:36:58;12.53;;;8.77;;
52730;SDS011;38624;53.242;6.974;2023-09-08T08:39:24;11.73;;;9.37;;
52730;SDS011;38624;53.242;6.974;2023-09-08T08:41:49;9.10;;;7.93;;
52730;SDS011;38624;53.242;6.974;2023-09-08T08:44:15;12.03;;;7.93;;
52730;SDS011;38624;53.242;6.974;2023-09-08T08:46:43;10.55;;;6.50;;
52730;SDS011;38624;53.242;6.974;2023-09-08T08:49:11;11.70;;;7.03;;
52730;SDS011;38624;53.242;6.974;2023-09-08T08:51:41;9.27;;;6.90;;
52730;SDS011;38624;53.242;6.974;2023-09-08T08:54:11;14.48;;;6.57;;
52730;SDS011;38624;53.242;6.974;2023-09-08T08:56:38;8.85;;;6.50;;
52730;SDS011;38624;53.242;6.974;2023-09-08T08:59:05;8.90;;;6.20;;
52730;SDS011;38624;53.242;6.974;2023-09-08T09:01:32;11.45;;;6.10;;
52730;SDS011;38624;53.242;6.974;2023-09-08T09:03:58;8.80;;;5.90;;
52730;SDS011;38624;53.242;6.974;2023-09-08T09:06:24;13.00;;;5.70;;
52730;SDS011;38624;53.242;6.974;2023-09-08T09:08:50;10.27;;;6.00;;
52730;SDS011;38624;53.242;6.974;2023-09-08T09:11:15;10.17;;;6.43;;
52730;SDS011;38624;53.242;6.974;2023-09-08T09:13:41;9.87;;;6.10;;
52730;SDS011;38624;53.242;6.974;2023-09-08T09:16:07;8.67;;;5.90;;
52730;SDS011;38624;53.242;6.974;2023-09-08T09:21:21;7.63;;;6.35;;
52730;SDS011;38624;53.242;6.974;2023-09-08T09:23:46;7.97;;;5.63;;
52730;SDS011;38624;53.242;6.974;2023-09-08T09:26:22;11.10;;;6.33;;
52730;SDS011;38624;53.242;6.974;2023-09-08T09:28:50;12.65;;;6.22;;
52730;SDS011;38624;53.242;6.974;2023-09-08T09:31:17;10.73;;;5.25;;
52730;SDS011;38624;53.242;6.974;2023-09-08T09:36:10;12.25;;;6.13;;
52730;SDS011;38624;53.242;6.974;2023-09-08T09:38:46;15.43;;;5.57;;
52730;SDS011;38624;53.242;6.974;2023-09-08T09:41:12;14.15;;;5.97;;
52730;SDS011;38624;53.242;6.974;2023-09-08T09:43:38;9.38;;;5.72;;
52730;SDS011;38624;53.242;6.974;2023-09-08T09:46:07;9.80;;;5.47;;
52730;SDS011;38624;53.242;6.974;2023-09-08T09:48:34;7.85;;;5.40;;
52730;SDS011;38624;53.242;6.974;2023-09-08T09:51:14;11.18;;;5.57;;
52730;SDS011;38624;53.242;6.974;2023-09-08T09:53:41;7.80;;;5.40;;
52730;SDS011;38624;53.242;6.974;2023-09-08T09:56:08;8.20;;;5.97;;
52730;SDS011;38624;53.242;6.974;2023-09-08T09:58:36;8.45;;;5.47;;
52730;SDS011;38624;53.242;6.974;2023-09-08T10:01:03;8.93;;;5.22;;
52730;SDS011;38624;53.242;6.974;2023-09-08T10:03:30;9.70;;;5.80;;
52730;SDS011;38624;53.242;6.974;2023-09-08T10:05:58;10.52;;;5.20;;
52730;SDS011;38624;53.242;6.974;2023-09-08T10:08:25;6.85;;;5.35;;
52730;SDS011;38624;53.242;6.974;2023-09-08T10:10:50;10.43;;;5.28;;
52730;SDS011;38624;53.242;6.974;2023-09-08T10:13:18;10.60;;;5.30;;
52730;SDS011;38624;53.242;6.974;2023-09-08T10:15:50;8.15;;;5.07;;
52730;SDS011;38624;53.242;6.974;2023-09-08T10:18:17;8.52;;;5.10;;
52730;SDS011;38624;53.242;6.974;2023-09-08T10:20:46;7.45;;;5.20;;
52730;SDS011;38624;53.242;6.974;2023-09-08T10:23:21;6.88;;;5.10;;
52730;SDS011;38624;53.242;6.974;2023-09-08T10:25:50;11.00;;;6.27;;
52730;SDS011;38624;53.242;6.974;2023-09-08T10:28:21;8.20;;;5.20;;
52730;SDS011;38624;53.242;6.974;2023-09-08T10:30:48;5.95;;;4.78;;
52730;SDS011;38624;53.242;6.974;2023-09-08T10:33:15;7.90;;;5.40;;
52730;SDS011;38624;53.242;6.974;2023-09-08T10:35:42;7.53;;;5.15;;
52730;SDS011;38624;53.242;6.974;2023-09-08T10:38:23;8.88;;;5.43;;
52730;SDS011;38624;53.242;6.974;2023-09-08T10:40:51;6.78;;;4.70;;
52730;SDS011;38624;53.242;6.974;2023-09-08T10:43:35;8.73;;;4.97;;
52730;SDS011;38624;53.242;6.974;2023-09-08T10:46:08;6.47;;;4.55;;
52730;SDS011;38624;53.242;6.974;2023-09-08T10:48:43;6.90;;;5.13;;
52730;SDS011;38624;53.242;6.974;2023-09-08T10:51:12;6.55;;;4.95;;
52730;SDS011;38624;53.242;6.974;2023-09-08T10:53:39;8.18;;;4.75;;
52730;SDS011;38624;53.242;6.974;2023-09-08T10:56:05;6.15;;;5.00;;
52730;SDS011;38624;53.242;6.974;2023-09-08T11:01:01;8.10;;;4.68;;
52730;SDS011;38624;53.242;6.974;2023-09-08T11:03:28;6.68;;;4.85;;
52730;SDS011;38624;53.242;6.974;2023-09-08T11:06:08;5.65;;;4.68;;
52730;SDS011;38624;53.242;6.974;2023-09-08T11:08:36;7.47;;;4.82;;
52730;SDS011;38624;53.242;6.974;2023-09-08T11:11:03;6.18;;;4.82;;
52730;SDS011;38624;53.242;6.974;2023-09-08T11:13:29;6.90;;;5.00;;
52730;SDS011;38624;53.242;6.974;2023-09-08T11:15:55;7.53;;;4.73;;
52730;SDS011;38624;53.242;6.974;2023-09-08T11:18:31;7.10;;;4.60;;
52730;SDS011;38624;53.242;6.974;2023-09-08T11:21:02;6.35;;;4.95;;
52730;SDS011;38624;53.242;6.974;2023-09-08T11:23:32;6.97;;;4.82;;
52730;SDS011;38624;53.242;6.974;2023-09-08T11:25:58;7.00;;;4.43;;
52730;SDS011;38624;53.242;6.974;2023-09-08T11:28:25;6.43;;;4.55;;
52730;SDS011;38624;53.242;6.974;2023-09-08T11:30:52;6.15;;;4.50;;
52730;SDS011;38624;53.242;6.974;2023-09-08T11:33:20;6.20;;;4.57;;
52730;SDS011;38624;53.242;6.974;2023-09-08T11:35:50;7.05;;;4.55;;
52730;SDS011;38624;53.242;6.974;2023-09-08T11:38:18;5.32;;;4.43;;
52730;SDS011;38624;53.242;6.974;2023-09-08T11:43:11;5.50;;;4.55;;
52730;SDS011;38624;53.242;6.974;2023-09-08T11:48:03;7.00;;;4.22;;
52730;SDS011;38624;53.242;6.974;2023-09-08T11:52:55;5.78;;;4.45;;
52730;SDS011;38624;53.242;6.974;2023-09-08T11:55:22;8.32;;;4.70;;
52730;SDS011;38624;53.242;6.974;2023-09-08T11:57:49;6.15;;;4.32;;
52730;SDS011;38624;53.242;6.974;2023-09-08T12:00:20;4.95;;;4.20;;
52730;SDS011;38624;53.242;6.974;2023-09-08T12:02:48;5.00;;;4.20;;
52730;SDS011;38624;53.242;6.974;2023-09-08T12:05:21;4.97;;;4.18;;
52730;SDS011;38624;53.242;6.974;2023-09-08T12:07:52;6.05;;;4.50;;
52730;SDS011;38624;53.242;6.974;2023-09-08T12:10:20;4.53;;;4.03;;
52730;SDS011;38624;53.242;6.974;2023-09-08T12:12:48;5.85;;;4.65;;
52730;SDS011;38624;53.242;6.974;2023-09-08T12:15:34;5.25;;;3.90;;
52730;SDS011;38624;53.242;6.974;2023-09-08T12:18:05;5.97;;;4.03;;
52730;SDS011;38624;53.242;6.974;2023-09-08T12:20:32;6.45;;;4.07;;
52730;SDS011;38624;53.242;6.974;2023-09-08T12:23:00;6.72;;;4.50;;
52730;SDS011;38624;53.242;6.974;2023-09-08T12:25:30;6.13;;;3.90;;
52730;SDS011;38624;53.242;6.974;2023-09-08T12:27:57;8.20;;;4.47;;
52730;SDS011;38624;53.242;6.974;2023-09-08T12:30:23;8.35;;;4.38;;
52730;SDS011;38624;53.242;6.974;2023-09-08T12:32:57;8.25;;;4.35;;
52730;SDS011;38624;53.242;6.974;2023-09-08T12:35:24;5.18;;;4.45;;
52730;SDS011;38624;53.242;6.974;2023-09-08T12:40:27;7.15;;;4.60;;
52730;SDS011;38624;53.242;6.974;2023-09-08T12:42:54;6.55;;;4.40;;
52730;SDS011;38624;53.242;6.974;2023-09-08T12:47:47;5.72;;;4.28;;
52730;SDS011;38624;53.242;6.974;2023-09-08T12:50:13;5.07;;;4.57;;
52730;SDS011;38624;53.242;6.974;2023-09-08T12:52:39;5.00;;;4.20;;
52730;SDS011;38624;53.242;6.974;2023-09-08T12:55:06;6.28;;;4.40;;
52730;SDS011;38624;53.242;6.974;2023-09-08T12:57:32;5.63;;;4.28;;
52730;SDS011;38624;53.242;6.974;2023-09-08T12:59:58;6.68;;;4.32;;
52730;SDS011;38624;53.242;6.974;2023-09-08T13:02:24;7.85;;;4.18;;
52730;SDS011;38624;53.242;6.974;2023-09-08T13:04:49;6.05;;;4.38;;
52730;SDS011;38624;53.242;6.974;2023-09-08T13:07:15;6.40;;;4.45;;
52730;SDS011;38624;53.242;6.974;2023-09-08T13:09:41;4.97;;;4.47;;
52730;SDS011;38624;53.242;6.974;2023-09-08T13:12:07;10.23;;;4.45;;
52730;SDS011;38624;53.242;6.974;2023-09-08T13:14:37;5.53;;;4.30;;
52730;SDS011;38624;53.242;6.974;2023-09-08T13:17:03;4.85;;;4.18;;
52730;SDS011;38624;53.242;6.974;2023-09-08T13:19:29;6.03;;;4.35;;
52730;SDS011;38624;53.242;6.974;2023-09-08T13:21:55;7.35;;;4.32;;
52730;SDS011;38624;53.242;6.974;2023-09-08T13:24:20;4.95;;;4.03;;
52730;SDS011;38624;53.242;6.974;2023-09-08T13:26:47;5.93;;;4.22;;
52730;SDS011;38624;53.242;6.974;2023-09-08T13:29:13;8.13;;;4.55;;
52730;SDS011;38624;53.242;6.974;2023-09-08T13:31:39;8.38;;;4.10;;
52730;SDS011;38624;53.242;6.974;2023-09-08T13:34:05;6.05;;;4.50;;
52730;SDS011;38624;53.242;6.974;2023-09-08T13:36:31;8.63;;;4.57;;
52730;SDS011;38624;53.242;6.974;2023-09-08T13:38:56;5.03;;;4.40;;
52730;SDS011;38624;53.242;6.974;2023-09-08T13:41:23;8.95;;;4.93;;
52730;SDS011;38624;53.242;6.974;2023-09-08T13:43:49;5.80;;;4.43;;
52730;SDS011;38624;53.242;6.974;2023-09-08T13:46:15;7.60;;;4.87;;
52730;SDS011;38624;53.242;6.974;2023-09-08T13:51:07;6.10;;;4.50;;
52730;SDS011;38624;53.242;6.974;2023-09-08T13:53:33;7.50;;;4.20;;
52730;SDS011;38624;53.242;6.974;2023-09-08T13:56:00;11.05;;;4.78;;
52730;SDS011;38624;53.242;6.974;2023-09-08T13:58:25;5.47;;;4.50;;
52730;SDS011;38624;53.242;6.974;2023-09-08T14:00:51;6.10;;;4.43;;
52730;SDS011;38624;53.242;6.974;2023-09-08T14:03:17;4.82;;;4.10;;
52730;SDS011;38624;53.242;6.974;2023-09-08T14:08:09;4.78;;;4.13;;
52730;SDS011;38624;53.242;6.974;2023-09-08T14:10:35;5.90;;;4.53;;
52730;SDS011;38624;53.242;6.974;2023-09-08T14:13:01;8.32;;;4.38;;
52730;SDS011;38624;53.242;6.974;2023-09-08T14:15:27;6.53;;;3.92;;
52730;SDS011;38624;53.242;6.974;2023-09-08T14:17:52;6.90;;;4.57;;
52730;SDS011;38624;53.242;6.974;2023-09-08T14:20:18;5.83;;;4.70;;
52730;SDS011;38624;53.242;6.974;2023-09-08T14:22:44;5.50;;;4.10;;
52730;SDS011;38624;53.242;6.974;2023-09-08T14:25:10;7.60;;;4.65;;
52730;SDS011;38624;53.242;6.974;2023-09-08T14:27:35;6.82;;;4.18;;
52730;SDS011;38624;53.242;6.974;2023-09-08T14:30:02;7.60;;;4.30;;
52730;SDS011;38624;53.242;6.974;2023-09-08T14:32:29;8.25;;;4.30;;
52730;SDS011;38624;53.242;6.974;2023-09-08T14:34:56;8.13;;;4.53;;
52730;SDS011;38624;53.242;6.974;2023-09-08T14:37:22;5.90;;;4.13;;
52730;SDS011;38624;53.242;6.974;2023-09-08T14:39:48;6.22;;;4.20;;
52730;SDS011;38624;53.242;6.974;2023-09-08T14:42:14;9.68;;;4.70;;
52730;SDS011;38624;53.242;6.974;2023-09-08T14:47:06;6.22;;;4.60;;
52730;SDS011;38624;53.242;6.974;2023-09-08T14:49:32;5.35;;;4.05;;
52730;SDS011;38624;53.242;6.974;2023-09-08T14:51:57;5.72;;;4.60;;
52730;SDS011;38624;53.242;6.974;2023-09-08T14:54:23;5.65;;;4.22;;
52730;SDS011;38624;53.242;6.974;2023-09-08T14:59:15;5.30;;;4.30;;
52730;SDS011;38624;53.242;6.974;2023-09-08T15:01:41;5.47;;;4.40;;
52730;SDS011;38624;53.242;6.974;2023-09-08T15:04:08;5.38;;;4.10;;
52730;SDS011;38624;53.242;6.974;2023-09-08T15:06:33;5.18;;;4.25;;